createdAt,value
2018-06-16T00:02:08.372Z,99210.75
2018-06-16T00:04:38.819Z,99207.74
2018-06-16T00:07:09.275Z,99211.84
2018-06-16T00:09:39.683Z,99207.19
2018-06-16T00:12:09.753Z,99205.84
2018-06-16T00:14:40.031Z,99206.64
2018-06-16T00:17:10.336Z,99210.16
2018-06-16T00:19:40.867Z,99203.31
2018-06-16T00:22:12.234Z,99202.21
2018-06-16T00:24:42.797Z,99201.11
2018-06-16T00:27:13.240Z,99207.14
2018-06-16T00:29:43.762Z,99201.37
2018-06-16T00:32:14.108Z,99201.61
2018-06-16T00:34:44.501Z,99200.50
2018-06-16T00:37:14.712Z,99202.19
2018-06-16T00:39:45.040Z,99204.11
2018-06-16T00:42:15.955Z,99207.14
2018-06-16T00:44:46.673Z,99210.95
2018-06-16T00:47:16.724Z,99203.08
2018-06-16T00:49:47.438Z,99209.72
2018-06-16T00:52:17.690Z,99207.87
2018-06-16T00:54:48.414Z,99211.50
2018-06-16T00:57:29.756Z,99211.52
2018-06-16T00:59:59.784Z,99208.52
2018-06-16T01:02:30.165Z,99207.41
2018-06-16T01:05:00.441Z,99207.41
2018-06-16T01:07:30.868Z,99206.06
2018-06-16T01:10:00.888Z,99201.74
2018-06-16T01:12:31.157Z,99190.84
2018-06-16T01:15:01.441Z,99195.00
2018-06-16T01:17:31.685Z,99192.84
2018-06-16T01:20:02.664Z,99187.67
2018-06-16T01:22:33.172Z,99178.91
2018-06-16T01:25:09.946Z,99184.13
2018-06-16T01:27:40.139Z,99177.02
2018-06-16T01:30:10.500Z,99181.72
2018-06-16T01:32:40.979Z,99172.14
2018-06-16T01:35:11.305Z,99176.03
2018-06-16T01:37:41.863Z,99174.72
2018-06-16T01:40:12.119Z,99179.59
2018-06-16T01:42:43.028Z,99176.53
2018-06-16T01:45:13.440Z,99162.06
2018-06-16T01:47:43.843Z,99164.27
2018-06-16T01:50:14.578Z,99173.56
2018-06-16T01:52:44.990Z,99162.06
2018-06-16T01:55:15.544Z,99166.17
2018-06-16T01:57:45.964Z,99162.91
2018-06-16T02:00:16.404Z,99161.27
2018-06-16T02:02:46.879Z,99156.92
2018-06-16T02:05:17.769Z,99159.45
2018-06-16T02:07:48.062Z,99162.20
2018-06-16T02:10:18.222Z,99165.48
2018-06-16T02:12:48.492Z,99162.80
2018-06-16T02:15:18.811Z,99163.45
2018-06-16T02:17:49.211Z,99169.21
2018-06-16T02:20:19.524Z,99165.16
2018-06-16T02:22:49.582Z,99164.94
2018-06-16T02:25:20.131Z,99170.69
2018-06-16T02:27:50.860Z,99167.69
2018-06-16T02:30:21.346Z,99171.55
2018-06-16T02:32:51.480Z,99166.92
2018-06-16T02:35:21.763Z,99166.44
2018-06-16T02:37:52.559Z,99165.66
2018-06-16T02:40:23.002Z,99172.28
2018-06-16T02:42:53.228Z,99168.22
2018-06-16T02:45:23.758Z,99164.95
2018-06-16T02:47:54.417Z,99164.78
2018-06-16T02:50:24.822Z,99165.88
2018-06-16T02:52:55.726Z,99172.20
2018-06-16T02:55:26.255Z,99174.41
2018-06-16T02:57:56.741Z,99170.85
2018-06-16T03:00:27.166Z,99176.63
2018-06-16T03:02:57.698Z,99181.56
2018-06-16T03:05:28.344Z,99183.20
2018-06-16T03:07:58.745Z,99189.22
2018-06-16T03:10:29.359Z,99190.30
2018-06-16T03:12:59.748Z,99188.08
2018-06-16T03:15:29.991Z,99190.26
2018-06-16T03:18:00.564Z,99186.11
2018-06-16T03:20:31.007Z,99192.12
2018-06-16T03:23:01.380Z,99188.56
2018-06-16T03:25:31.899Z,99192.63
2018-06-16T03:28:02.116Z,99191.52
2018-06-16T03:30:32.365Z,99188.51
2018-06-16T03:33:02.526Z,99193.07
2018-06-16T03:35:32.926Z,99185.45
2018-06-16T03:38:03.163Z,99191.38
2018-06-16T03:40:33.322Z,99190.81
2018-06-16T03:43:03.503Z,99193.78
2018-06-16T03:45:34.723Z,99191.82
2018-06-16T03:48:05.105Z,99194.23
2018-06-16T03:50:35.407Z,99195.53
2018-06-16T03:53:05.857Z,99188.62
2018-06-16T03:55:36.830Z,99191.03
2018-06-16T03:58:07.123Z,99195.03
2018-06-16T04:00:37.614Z,99188.73
2018-06-16T04:03:07.929Z,99196.84
2018-06-16T04:05:39.299Z,99195.73
2018-06-16T04:08:09.596Z,99198.42
2018-06-16T04:10:40.159Z,99202.73
2018-06-16T04:13:10.470Z,99200.76
2018-06-16T04:15:41.219Z,99199.34
2018-06-16T04:18:11.651Z,99204.03
2018-06-16T04:20:42.119Z,99198.23
2018-06-16T04:23:12.447Z,99207.00
2018-06-16T04:25:42.959Z,99198.23
2018-06-16T04:28:13.137Z,99201.31
2018-06-16T04:30:43.400Z,99201.58
2018-06-16T04:33:13.817Z,99199.44
2018-06-16T04:35:44.338Z,99196.94
2018-06-16T04:38:15.039Z,99195.63
2018-06-16T04:40:45.593Z,99200.28
2018-06-16T04:43:16.011Z,99203.02
2018-06-16T04:45:47.042Z,99198.41
2018-06-16T04:48:17.364Z,99203.28
2018-06-16T04:50:48.361Z,99204.91
2018-06-16T04:53:19.146Z,99203.55
2018-06-16T04:55:49.543Z,99201.86
2018-06-16T04:58:19.656Z,99206.83
2018-06-16T05:00:50.316Z,99195.57
2018-06-16T05:03:20.492Z,99195.57
2018-06-16T05:05:51.027Z,99205.42
2018-06-16T05:08:21.562Z,99203.23
2018-06-16T05:10:52.398Z,99193.08
2018-06-16T05:13:22.691Z,99204.03
2018-06-16T05:15:53.173Z,99213.03
2018-06-16T05:18:23.523Z,99206.45
2018-06-16T05:20:54.661Z,99209.14
2018-06-16T05:23:25.120Z,99207.43
2018-06-16T05:25:55.675Z,99209.05
2018-06-16T05:28:26.053Z,99214.72
2018-06-16T05:30:56.248Z,99208.64
2018-06-16T05:33:26.885Z,99206.42
2018-06-16T05:35:57.324Z,99198.45
2018-06-16T05:38:27.730Z,99203.31
2018-06-16T05:40:58.270Z,99196.19
2018-06-16T05:43:28.413Z,99202.64
2018-06-16T05:45:58.870Z,99206.19
2018-06-16T05:48:29.589Z,99201.74
2018-06-16T05:50:59.770Z,99204.75
2018-06-16T05:53:30.744Z,99209.67
2018-06-16T05:56:01.864Z,99209.33
2018-06-16T05:58:32.199Z,99214.96
2018-06-16T06:01:02.592Z,99211.53
2018-06-16T06:03:33.005Z,99213.60
2018-06-16T06:06:03.273Z,99214.39
2018-06-16T06:08:34.239Z,99210.23
2018-06-16T06:11:04.414Z,99214.81
2018-06-16T06:13:34.598Z,99212.21
2018-06-16T06:16:05.241Z,99217.55
2018-06-16T06:18:35.587Z,99211.02
2018-06-16T06:21:05.757Z,99217.20
2018-06-16T06:23:36.014Z,99221.13
2018-06-16T06:26:06.337Z,99223.69
2018-06-16T06:28:37.703Z,99225.20
2018-06-16T06:31:08.221Z,99230.07
2018-06-16T06:33:38.491Z,99225.61
2018-06-16T06:36:08.947Z,99232.98
2018-06-16T06:38:39.160Z,99229.58
2018-06-16T06:41:09.557Z,99225.20
2018-06-16T06:43:40.025Z,99228.70
2018-06-16T06:46:10.602Z,99229.72
2018-06-16T06:48:41.110Z,99224.39
2018-06-16T06:51:11.547Z,99224.45
2018-06-16T06:53:41.712Z,99223.57
2018-06-16T06:56:11.903Z,99219.62
2018-06-16T06:58:42.212Z,99223.58
2018-06-16T07:01:12.527Z,99225.45
2018-06-16T07:03:42.991Z,99223.72
2018-06-16T07:06:13.235Z,99226.16
2018-06-16T07:08:43.795Z,99224.80
2018-06-16T07:11:14.542Z,99224.80
2018-06-16T07:13:45.254Z,99223.06
2018-06-16T07:16:15.531Z,99224.08
2018-06-16T07:18:46.548Z,99224.56
2018-06-16T07:21:17.037Z,99216.34
2018-06-16T07:23:47.240Z,99209.05
2018-06-16T07:26:17.504Z,99210.13
2018-06-16T07:28:47.720Z,99210.23
2018-06-16T07:31:18.219Z,99206.44
2018-06-16T07:33:48.345Z,99204.94
2018-06-16T07:36:18.958Z,99199.80
2018-06-16T07:38:49.195Z,99200.48
2018-06-16T07:41:19.562Z,99200.33
2018-06-16T07:43:50.451Z,99202.97
2018-06-16T07:46:20.630Z,99191.62
2018-06-16T07:48:51.119Z,99197.11
2018-06-16T07:51:21.351Z,99191.25
2018-06-16T07:53:51.562Z,99188.95
2018-06-16T07:56:21.844Z,99189.81
2018-06-16T07:58:52.659Z,99193.48
2018-06-16T08:01:23.418Z,99194.81
2018-06-16T08:03:53.831Z,99186.69
2018-06-16T08:06:24.169Z,99186.83
2018-06-16T08:08:54.570Z,99183.68
2018-06-16T08:11:25.328Z,99190.80
2018-06-16T08:13:55.595Z,99187.85
2018-06-16T08:16:26.253Z,99179.23
2018-06-16T08:18:57.787Z,99180.62
2018-06-16T08:21:28.215Z,99180.37
2018-06-16T08:23:58.555Z,99174.71
2018-06-16T08:26:29.047Z,99171.70
2018-06-16T08:28:59.705Z,99174.97
2018-06-16T08:31:30.165Z,99172.45
2018-06-16T08:34:00.431Z,99165.77
2018-06-16T08:36:30.963Z,99162.72
2018-06-16T08:39:02.010Z,99158.45
2018-06-16T08:41:32.055Z,99162.55
2018-06-16T08:44:02.500Z,99157.72
2018-06-16T08:46:32.845Z,99152.08
2018-06-16T08:49:03.195Z,99160.55
2018-06-16T08:51:35.463Z,99153.84
2018-06-16T08:54:06.469Z,99157.26
2018-06-16T08:56:36.898Z,99160.65
2018-06-16T08:59:07.050Z,99159.45
2018-06-16T09:01:37.317Z,99158.32
2018-06-16T09:04:07.614Z,99161.80
2018-06-16T09:06:37.736Z,99147.72
2018-06-16T09:09:09.226Z,99149.41
2018-06-16T09:11:40.260Z,99146.98
2018-06-16T09:14:10.193Z,99150.61
2018-06-16T09:16:40.586Z,99146.66
2018-06-16T09:19:10.893Z,99143.55
2018-06-16T09:21:41.377Z,99144.81
2018-06-16T09:24:11.706Z,99138.72
2018-06-16T09:26:42.022Z,99147.83
2018-06-16T09:29:12.351Z,99139.21
2018-06-16T09:31:42.866Z,99136.53
2018-06-16T09:34:13.622Z,99145.59
2018-06-16T09:36:44.061Z,99138.41
2018-06-16T09:39:14.446Z,99137.55
2018-06-16T09:41:44.883Z,99145.22
2018-06-16T09:44:15.157Z,99142.03
2018-06-16T09:46:45.447Z,99137.34
2018-06-16T09:49:15.806Z,99148.20
2018-06-16T09:51:46.005Z,99150.34
2018-06-16T09:54:16.292Z,99147.39
2018-06-16T09:56:47.369Z,99144.98
2018-06-16T09:59:17.513Z,99144.83
2018-06-16T10:01:47.931Z,99145.80
2018-06-16T10:04:18.312Z,99142.34
2018-06-16T10:06:48.660Z,99135.43
2018-06-16T10:09:19.331Z,99141.41
2018-06-16T10:11:49.932Z,99142.41
2018-06-16T10:14:20.473Z,99138.25
2018-06-16T10:16:50.815Z,99148.05
2018-06-16T10:19:21.147Z,99141.21
2018-06-16T10:21:51.391Z,99131.39
2018-06-16T10:24:21.504Z,99133.99
2018-06-16T10:26:51.738Z,99133.70
2018-06-16T10:29:21.947Z,99126.21
2018-06-16T10:31:52.843Z,99128.42
2018-06-16T10:34:23.211Z,99129.95
2018-06-16T10:36:53.425Z,99123.97
2018-06-16T10:39:23.762Z,99126.88
2018-06-16T10:41:53.856Z,99126.25
2018-06-16T10:44:24.330Z,99124.75
2018-06-16T10:46:54.723Z,99122.47
2018-06-16T10:49:25.065Z,99117.41
2018-06-16T10:51:55.275Z,99120.53
2018-06-16T10:54:25.828Z,99122.77
2018-06-16T10:56:56.924Z,99111.67
2018-06-16T10:59:27.372Z,99121.75
2018-06-16T11:01:57.725Z,99113.75
2018-06-16T11:04:27.988Z,99108.13
2018-06-16T11:06:58.500Z,99108.49
2018-06-16T11:09:29.113Z,99107.90
2018-06-16T11:11:59.207Z,99110.22
2018-06-16T11:14:29.580Z,99110.56
2018-06-16T11:17:00.125Z,99113.69
2018-06-16T11:19:30.363Z,99112.88
2018-06-16T11:22:00.589Z,99107.80
2018-06-16T11:24:32.684Z,99108.52
2018-06-16T11:27:03.127Z,99108.73
2018-06-16T11:29:33.473Z,99105.28
2018-06-16T11:32:03.755Z,99104.48
2018-06-16T11:34:33.915Z,99103.42
2018-06-16T11:37:04.255Z,99101.23
2018-06-16T11:39:34.497Z,99096.50
2018-06-16T11:42:04.911Z,99097.86
2018-06-16T11:44:35.384Z,99092.91
2018-06-16T11:47:05.758Z,99093.48
2018-06-16T11:49:36.085Z,99095.31
2018-06-16T11:52:06.447Z,99099.57
2018-06-16T11:54:36.986Z,99093.60
2018-06-16T11:57:07.576Z,99098.59
2018-06-16T11:59:38.047Z,99097.89
2018-06-16T12:02:08.575Z,99096.30
2018-06-16T12:04:39.431Z,99098.55
2018-06-16T12:07:10.996Z,99103.03
2018-06-16T12:09:40.972Z,99104.74
2018-06-16T12:12:11.417Z,99109.75
2018-06-16T12:14:41.592Z,99107.80
2018-06-16T12:17:11.839Z,99107.77
2018-06-16T12:19:42.308Z,99106.57
2018-06-16T12:22:12.935Z,99102.36
2018-06-16T12:24:43.324Z,99097.53
2018-06-16T12:27:13.980Z,99089.69
2018-06-16T12:29:44.284Z,99095.77
2018-06-16T12:32:14.931Z,99090.81
2018-06-16T12:34:46.064Z,99094.13
2018-06-16T12:37:16.528Z,99094.13
2018-06-16T12:39:46.768Z,99088.60
2018-06-16T12:42:17.276Z,99090.88
2018-06-16T12:44:47.465Z,99089.22
2018-06-16T12:47:21.035Z,99094.42
2018-06-16T12:49:51.622Z,99098.31
2018-06-16T12:52:21.811Z,99098.45
2018-06-16T12:54:52.232Z,99098.70
2018-06-16T12:57:22.971Z,99092.63
2018-06-16T12:59:53.656Z,99097.15
2018-06-16T13:02:24.737Z,99095.95
2018-06-16T13:04:55.962Z,99095.09
2018-06-16T13:07:26.543Z,99093.39
2018-06-16T13:09:58.906Z,99091.59
2018-06-16T13:12:29.356Z,99095.99
2018-06-16T13:14:59.614Z,99094.61
2018-06-16T13:17:30.069Z,99097.16
2018-06-16T13:20:00.436Z,99091.84
2018-06-16T13:22:30.986Z,99090.57
2018-06-16T13:25:02.384Z,99090.66
2018-06-16T13:27:32.688Z,99091.59
2018-06-16T13:30:03.387Z,99091.84
2018-06-16T13:32:33.651Z,99095.30
2018-06-16T13:35:10.467Z,99093.72
2018-06-16T13:37:41.436Z,99091.41
2018-06-16T13:40:11.869Z,99089.81
2018-06-16T13:42:42.400Z,99095.55
2018-06-16T13:45:13.067Z,99087.38
2018-06-16T13:47:43.242Z,99082.09
2018-06-16T13:50:14.278Z,99082.09
2018-06-16T13:52:44.689Z,99084.50
2018-06-16T13:55:15.189Z,99084.94
2018-06-16T13:57:45.571Z,99085.06
2018-06-16T14:00:16.456Z,99083.66
2018-06-16T14:02:46.891Z,99079.15
2018-06-16T14:05:17.219Z,99083.03
2018-06-16T14:07:47.624Z,99079.90
2018-06-16T14:10:18.286Z,99078.83
2018-06-16T14:12:48.707Z,99077.88
2018-06-16T14:15:19.609Z,99075.28
2018-06-16T14:17:50.597Z,99080.48
2018-06-16T14:20:21.249Z,99076.45
2018-06-16T14:22:51.447Z,99076.20
2018-06-16T14:25:22.148Z,99075.96
2018-06-16T14:27:53.087Z,99073.06
2018-06-16T14:30:23.846Z,99074.31
2018-06-16T14:32:54.209Z,99077.08
2018-06-16T14:35:24.453Z,99068.77
2018-06-16T14:37:54.932Z,99075.28
2018-06-16T14:40:25.875Z,99075.39
2018-06-16T14:42:56.800Z,99068.50
2018-06-16T14:45:28.904Z,99066.95
2018-06-16T14:47:59.113Z,99065.49
2018-06-16T14:50:29.818Z,99063.87
2018-06-16T14:53:00.100Z,99068.01
2018-06-16T14:55:30.273Z,99067.58
2018-06-16T14:58:00.788Z,99064.36
2018-06-16T15:00:37.855Z,99064.25
2018-06-16T15:03:08.500Z,99066.77
2018-06-16T15:05:38.902Z,99065.06
2018-06-16T15:08:09.298Z,99063.44
2018-06-16T15:10:39.547Z,99064.36
2018-06-16T15:13:10.161Z,99061.81
2018-06-16T15:15:41.089Z,99059.55
2018-06-16T15:18:11.447Z,99058.16
2018-06-16T15:20:42.828Z,99054.73
2018-06-16T15:23:14.000Z,99055.62
2018-06-16T15:25:44.403Z,99049.39
2018-06-16T15:28:14.892Z,99053.78
2018-06-16T15:30:45.206Z,99060.00
2018-06-16T15:33:15.694Z,99057.92
2018-06-16T15:35:46.144Z,99053.67
2018-06-16T15:38:16.662Z,99054.48
2018-06-16T15:40:47.064Z,99055.86
2018-06-16T15:43:17.452Z,99057.00
2018-06-16T15:45:48.519Z,99046.45
2018-06-16T15:48:18.896Z,99053.16
2018-06-16T15:50:49.345Z,99043.49
2018-06-16T15:53:20.686Z,99039.35
2018-06-16T15:55:51.131Z,99032.48
2018-06-16T15:58:21.615Z,99037.03
2018-06-16T16:00:52.742Z,99041.63
2018-06-16T16:03:23.098Z,99037.97
2018-06-16T16:05:53.908Z,99040.36
2018-06-16T16:08:24.531Z,99039.06
2018-06-16T16:10:55.181Z,99039.66
2018-06-16T16:13:31.673Z,99038.14
2018-06-16T16:16:01.886Z,99040.11
2018-06-16T16:18:33.106Z,99032.52
2018-06-16T16:21:03.580Z,99032.84
2018-06-16T16:23:33.947Z,99034.78
2018-06-16T16:26:04.566Z,99029.94
2018-06-16T16:28:35.136Z,99032.84
2018-06-16T16:31:05.476Z,99030.52
2018-06-16T16:33:35.825Z,99036.81
2018-06-16T16:36:06.390Z,99034.95
2018-06-16T16:38:36.762Z,99037.06
2018-06-16T16:41:07.286Z,99041.71
2018-06-16T16:43:37.377Z,99036.12
2018-06-16T16:46:07.735Z,99040.12
2018-06-16T16:48:38.232Z,99038.25
2018-06-16T16:51:09.288Z,99038.30
2018-06-16T16:53:42.328Z,99037.02
2018-06-16T16:56:12.746Z,99038.55
2018-06-16T16:58:42.897Z,99036.19
2018-06-16T17:01:13.234Z,99035.13
2018-06-16T17:03:44.682Z,99034.42
2018-06-16T17:06:15.022Z,99036.66
2018-06-16T17:08:45.219Z,99034.95
2018-06-16T17:11:15.536Z,99028.06
2018-06-16T17:13:45.875Z,99032.94
2018-06-16T17:16:16.316Z,99035.09
2018-06-16T17:18:46.423Z,99034.18
2018-06-16T17:21:17.354Z,99038.09
2018-06-16T17:23:47.603Z,99026.54
2018-06-16T17:26:17.799Z,99033.85
2018-06-16T17:28:48.086Z,99031.84
2018-06-16T17:31:18.537Z,99033.78
2018-06-16T17:33:48.594Z,99032.85
2018-06-16T17:36:19.108Z,99030.27
2018-06-16T17:38:49.840Z,99030.83
2018-06-16T17:41:20.467Z,99030.27
2018-06-16T17:43:50.923Z,99033.61
2018-06-16T17:46:22.418Z,99031.27
2018-06-16T17:48:52.924Z,99032.80
2018-06-16T17:51:23.287Z,99036.22
2018-06-16T17:53:53.932Z,99030.55
2018-06-16T17:56:24.103Z,99032.66
2018-06-16T17:58:54.543Z,99035.91
2018-06-16T18:01:24.927Z,99036.05
2018-06-16T18:03:55.492Z,99033.39
2018-06-16T18:06:27.347Z,99030.98
2018-06-16T18:08:57.827Z,99033.49
2018-06-16T18:11:27.961Z,99044.11
2018-06-16T18:13:58.273Z,99038.28
2018-06-16T18:16:28.730Z,99044.11
2018-06-16T18:18:59.275Z,99042.89
2018-06-16T18:21:29.734Z,99055.13
2018-06-16T18:24:00.050Z,99046.97
2018-06-16T18:26:30.282Z,99050.13
2018-06-16T18:29:00.652Z,99049.06
2018-06-16T18:31:31.596Z,99042.12
2018-06-16T18:34:02.061Z,99044.62
2018-06-16T18:36:32.528Z,99050.38
2018-06-16T18:39:02.911Z,99053.79
2018-06-16T18:41:33.506Z,99053.54
2018-06-16T18:44:05.898Z,99052.57
2018-06-16T18:46:36.742Z,99050.63
2018-06-16T18:49:07.023Z,99050.95
2018-06-16T18:51:37.353Z,99062.36
2018-06-16T18:54:08.149Z,99063.33
2018-06-16T18:56:38.311Z,99068.67
2018-06-16T18:59:08.890Z,99061.58
2018-06-16T19:01:39.402Z,99070.45
2018-06-16T19:04:09.580Z,99073.55
2018-06-16T19:06:40.188Z,99075.33
2018-06-16T19:09:10.375Z,99073.45
2018-06-16T19:11:41.226Z,99086.42
2018-06-16T19:14:11.548Z,99087.05
2018-06-16T19:16:42.868Z,99088.11
2018-06-16T19:19:13.174Z,99086.83
2018-06-16T19:21:43.362Z,99091.27
2018-06-16T19:24:15.047Z,99092.48
2018-06-16T19:26:45.421Z,99093.66
2018-06-16T19:29:16.305Z,99096.56
2018-06-16T19:31:48.515Z,99104.00
2018-06-16T19:34:18.956Z,99105.77
2018-06-16T19:36:49.120Z,99104.31
2018-06-16T19:39:19.510Z,99105.22
2018-06-16T19:41:49.689Z,99103.89
2018-06-16T19:44:19.912Z,99103.98
2018-06-16T19:46:50.277Z,99108.11
2018-06-16T19:49:20.641Z,99108.97
2018-06-16T19:51:50.909Z,99104.45
2018-06-16T19:54:22.179Z,99109.28
2018-06-16T19:56:52.516Z,99107.17
2018-06-16T19:59:22.850Z,99097.77
2018-06-16T20:01:53.319Z,99105.45
2018-06-16T20:04:24.311Z,99107.70
2018-06-16T20:06:54.459Z,99113.59
2018-06-16T20:09:24.931Z,99118.61
2018-06-16T20:11:55.250Z,99122.73
2018-06-16T20:14:26.674Z,99119.00
2018-06-16T20:16:57.176Z,99121.75
2018-06-16T20:19:28.248Z,99120.45
2018-06-16T20:21:58.813Z,99123.84
2018-06-16T20:24:28.983Z,99128.17
2018-06-16T20:26:59.140Z,99130.41
2018-06-16T20:29:29.762Z,99124.63
2018-06-16T20:32:00.113Z,99131.02
2018-06-16T20:34:30.790Z,99125.91
2018-06-16T20:37:01.204Z,99136.72
2018-06-16T20:39:32.177Z,99136.80
2018-06-16T20:42:02.556Z,99136.59
2018-06-16T20:44:33.035Z,99139.16
2018-06-16T20:47:03.529Z,99143.61
2018-06-16T20:49:33.835Z,99147.77
2018-06-16T20:52:04.105Z,99153.68
2018-06-16T20:54:34.328Z,99155.66
2018-06-16T20:57:04.780Z,99151.69
2018-06-16T20:59:35.100Z,99145.20
2018-06-16T21:02:05.563Z,99144.83
2018-06-16T21:04:35.993Z,99145.76
2018-06-16T21:07:06.421Z,99149.17
2018-06-16T21:09:37.326Z,99151.52
2018-06-16T21:12:07.870Z,99149.17
2018-06-16T21:14:38.261Z,99146.58
2018-06-16T21:17:08.793Z,99145.28
2018-06-16T21:19:39.473Z,99146.14
2018-06-16T21:22:10.105Z,99145.72
2018-06-16T21:24:40.599Z,99141.42
2018-06-16T21:27:11.534Z,99144.72
2018-06-16T21:29:41.792Z,99149.39
2018-06-16T21:32:13.154Z,99145.27
2018-06-16T21:34:44.164Z,99145.02
2018-06-16T21:37:15.741Z,99148.58
2018-06-16T21:39:45.942Z,99152.95
2018-06-16T21:42:15.990Z,99150.20
2018-06-16T21:44:46.290Z,99151.31
2018-06-16T21:47:16.586Z,99151.12
2018-06-16T21:49:46.997Z,99151.20
2018-06-16T21:52:18.369Z,99145.13
2018-06-16T21:54:49.076Z,99146.27
2018-06-16T21:57:19.739Z,99149.63
2018-06-16T21:59:53.292Z,99150.48
2018-06-16T22:02:23.670Z,99148.04
2018-06-16T22:04:54.371Z,99146.25
2018-06-16T22:07:24.766Z,99147.98
2018-06-16T22:09:56.040Z,99146.09
2018-06-16T22:12:26.328Z,99143.78
2018-06-16T22:14:56.869Z,99144.20
2018-06-16T22:17:27.795Z,99143.45
2018-06-16T22:19:58.161Z,99144.05
2018-06-16T22:25:04.147Z,99151.88
2018-06-16T22:27:34.651Z,99149.75
2018-06-16T22:30:05.121Z,99145.15
2018-06-16T22:32:35.313Z,99149.27
2018-06-16T22:35:11.911Z,99150.38
2018-06-16T22:37:42.340Z,99144.70
2018-06-16T22:40:14.042Z,99151.28
2018-06-16T22:42:44.270Z,99156.28
2018-06-16T22:45:16.860Z,99156.02
2018-06-16T22:47:47.824Z,99158.23
2018-06-16T22:50:20.064Z,99153.33
2018-06-16T22:52:51.042Z,99155.87
2018-06-16T22:55:21.917Z,99147.39
2018-06-16T22:57:52.058Z,99151.02
2018-06-16T23:00:25.102Z,99152.18
2018-06-16T23:02:55.591Z,99148.72
2018-06-16T23:05:26.212Z,99148.48
2018-06-16T23:07:56.814Z,99152.39
2018-06-16T23:10:27.316Z,99148.37
2018-06-16T23:12:57.764Z,99152.28
2018-06-16T23:15:28.581Z,99151.75
2018-06-16T23:18:03.432Z,99151.87
2018-06-16T23:20:33.816Z,99154.69
2018-06-16T23:23:03.901Z,99147.37
2018-06-16T23:25:36.721Z,99146.41
2018-06-16T23:28:07.097Z,99144.02
2018-06-16T23:30:37.343Z,99142.70
2018-06-16T23:33:07.547Z,99143.55
2018-06-16T23:35:37.868Z,99134.86
2018-06-16T23:38:09.772Z,99142.92
2018-06-16T23:40:40.411Z,99143.47
2018-06-16T23:43:10.520Z,99139.97
2018-06-16T23:45:40.787Z,99142.77
2018-06-16T23:48:11.130Z,99138.44
2018-06-16T23:50:42.315Z,99141.78
2018-06-16T23:53:13.508Z,99137.97
2018-06-16T23:55:48.740Z,99139.13
2018-06-16T23:58:19.057Z,99142.47
